sensor_id;sensor_type;location;lat;lon;timestamp;pressure;altitude;pressure_sealevel;temperature;humidity
25759;BME280;13604;52.496;13.456;2023-04-28T00:01:13;101546.44;;;2.65;78.17
25759;BME280;13604;52.496;13.456;2023-04-28T00:03:38;101568.91;;;2.76;78.60
25759;BME280;13604;52.496;13.456;2023-04-28T00:06:04;101569.66;;;2.75;78.44
25759;BME280;13604;52.496;13.456;2023-04-28T00:08:30;101565.34;;;2.66;78.85
25759;BME280;13604;52.496;13.456;2023-04-28T00:10:56;101578.91;;;2.54;80.60
25759;BME280;13604;52.496;13.456;2023-04-28T00:13:21;101577.31;;;2.46;81.44
25759;BME280;13604;52.496;13.456;2023-04-28T00:15:46;101546.09;;;2.33;81.34
25759;BME280;13604;52.496;13.456;2023-04-28T00:18:13;101579.06;;;2.37;80.17
25759;BME280;13604;52.496;13.456;2023-04-28T00:20:38;101570.50;;;2.28;79.58
25759;BME280;13604;52.496;13.456;2023-04-28T00:23:04;101572.38;;;2.39;79.55
25759;BME280;13604;52.496;13.456;2023-04-28T00:25:29;101558.63;;;2.38;79.10
25759;BME280;13604;52.496;13.456;2023-04-28T00:27:55;101548.41;;;2.30;79.06
25759;BME280;13604;52.496;13.456;2023-04-28T00:30:20;101535.25;;;2.27;79.10
25759;BME280;13604;52.496;13.456;2023-04-28T00:32:45;101561.97;;;2.37;79.33
25759;BME280;13604;52.496;13.456;2023-04-28T00:35:11;101560.13;;;2.36;80.56
25759;BME280;13604;52.496;13.456;2023-04-28T00:37:36;101557.09;;;2.41;81.08
25759;BME280;13604;52.496;13.456;2023-04-28T00:40:02;101545.69;;;2.28;82.06
25759;BME280;13604;52.496;13.456;2023-04-28T00:42:28;101527.91;;;2.21;82.14
25759;BME280;13604;52.496;13.456;2023-04-28T00:44:54;101556.53;;;2.34;83.26
25759;BME280;13604;52.496;13.456;2023-04-28T00:47:19;101562.94;;;2.29;84.34
25759;BME280;13604;52.496;13.456;2023-04-28T00:49:45;101542.84;;;2.25;84.93
25759;BME280;13604;52.496;13.456;2023-04-28T00:52:11;101544.19;;;2.30;85.29
25759;BME280;13604;52.496;13.456;2023-04-28T00:54:37;101538.63;;;2.26;86.48
25759;BME280;13604;52.496;13.456;2023-04-28T00:57:02;101530.41;;;2.11;87.66
25759;BME280;13604;52.496;13.456;2023-04-28T00:59:29;101542.50;;;2.31;86.92
25759;BME280;13604;52.496;13.456;2023-04-28T01:01:54;101526.81;;;2.28;87.04
25759;BME280;13604;52.496;13.456;2023-04-28T01:04:20;101505.38;;;2.18;87.21
25759;BME280;13604;52.496;13.456;2023-04-28T01:06:46;101540.34;;;2.35;87.36
25759;BME280;13604;52.496;13.456;2023-04-28T01:09:12;101541.09;;;2.34;87.28
25759;BME280;13604;52.496;13.456;2023-04-28T01:11:37;101535.69;;;2.31;87.11
25759;BME280;13604;52.496;13.456;2023-04-28T01:14:02;101542.22;;;2.28;87.56
25759;BME280;13604;52.496;13.456;2023-04-28T01:16:28;101533.34;;;2.24;88.25
25759;BME280;13604;52.496;13.456;2023-04-28T01:18:56;101527.16;;;2.22;88.80
25759;BME280;13604;52.496;13.456;2023-04-28T01:21:31;101523.38;;;2.18;89.37
25759;BME280;13604;52.496;13.456;2023-04-28T01:23:57;101516.44;;;2.17;89.13
25759;BME280;13604;52.496;13.456;2023-04-28T01:26:23;101500.88;;;1.97;90.07
25759;BME280;13604;52.496;13.456;2023-04-28T01:28:48;101515.19;;;2.03;91.06
25759;BME280;13604;52.496;13.456;2023-04-28T01:31:13;101513.69;;;2.06;91.85
25759;BME280;13604;52.496;13.456;2023-04-28T01:33:38;101522.19;;;2.15;91.24
25759;BME280;13604;52.496;13.456;2023-04-28T01:36:04;101515.13;;;2.12;91.80
25759;BME280;13604;52.496;13.456;2023-04-28T01:38:29;101503.72;;;2.00;92.05
25759;BME280;13604;52.496;13.456;2023-04-28T01:40:55;101519.22;;;2.10;92.11
25759;BME280;13604;52.496;13.456;2023-04-28T01:43:20;101520.31;;;2.03;93.32
25759;BME280;13604;52.496;13.456;2023-04-28T01:45:45;101515.31;;;2.05;93.74
25759;BME280;13604;52.496;13.456;2023-04-28T01:48:11;101516.72;;;2.01;93.22
25759;BME280;13604;52.496;13.456;2023-04-28T01:50:36;101517.13;;;2.06;92.69
25759;BME280;13604;52.496;13.456;2023-04-28T01:53:01;101521.00;;;1.92;94.26
25759;BME280;13604;52.496;13.456;2023-04-28T01:55:28;101515.47;;;1.88;94.50
25759;BME280;13604;52.496;13.456;2023-04-28T01:57:53;101498.69;;;1.82;94.97
25759;BME280;13604;52.496;13.456;2023-04-28T02:00:18;101492.81;;;1.83;94.22
25759;BME280;13604;52.496;13.456;2023-04-28T02:02:44;101499.84;;;1.95;94.06
25759;BME280;13604;52.496;13.456;2023-04-28T02:05:09;101509.00;;;2.01;93.89
25759;BME280;13604;52.496;13.456;2023-04-28T02:07:35;101473.25;;;1.94;93.22
25759;BME280;13604;52.496;13.456;2023-04-28T02:10:00;101494.16;;;2.08;93.40
25759;BME280;13604;52.496;13.456;2023-04-28T02:12:25;101480.19;;;1.95;93.45
25759;BME280;13604;52.496;13.456;2023-04-28T02:14:51;101500.94;;;2.07;93.95
25759;BME280;13604;52.496;13.456;2023-04-28T02:17:16;101508.03;;;2.10;94.11
25759;BME280;13604;52.496;13.456;2023-04-28T02:19:41;101486.63;;;2.00;94.08
25759;BME280;13604;52.496;13.456;2023-04-28T02:22:07;101498.31;;;1.97;94.88
25759;BME280;13604;52.496;13.456;2023-04-28T02:24:35;101508.88;;;2.00;94.57
25759;BME280;13604;52.496;13.456;2023-04-28T02:27:02;101509.75;;;2.00;94.32
25759;BME280;13604;52.496;13.456;2023-04-28T02:29:28;101478.03;;;1.81;95.47
25759;BME280;13604;52.496;13.456;2023-04-28T02:31:54;101471.84;;;1.79;95.67
25759;BME280;13604;52.496;13.456;2023-04-28T02:34:19;101496.38;;;1.94;95.68
25759;BME280;13604;52.496;13.456;2023-04-28T02:36:45;101495.06;;;1.89;95.53
25759;BME280;13604;52.496;13.456;2023-04-28T02:39:10;101478.28;;;1.84;94.96
25759;BME280;13604;52.496;13.456;2023-04-28T02:41:36;101490.72;;;1.98;94.85
25759;BME280;13604;52.496;13.456;2023-04-28T02:44:01;101463.59;;;1.92;93.93
25759;BME280;13604;52.496;13.456;2023-04-28T02:46:26;101485.41;;;2.06;93.47
25759;BME280;13604;52.496;13.456;2023-04-28T02:48:52;101456.53;;;1.89;93.71
25759;BME280;13604;52.496;13.456;2023-04-28T02:51:17;101480.03;;;1.94;93.76
25759;BME280;13604;52.496;13.456;2023-04-28T02:53:43;101487.75;;;1.94;93.16
25759;BME280;13604;52.496;13.456;2023-04-28T02:56:08;101459.69;;;1.87;93.29
25759;BME280;13604;52.496;13.456;2023-04-28T02:58:33;101475.97;;;1.96;92.96
25759;BME280;13604;52.496;13.456;2023-04-28T03:00:58;101465.84;;;1.97;91.86
25759;BME280;13604;52.496;13.456;2023-04-28T03:03:24;101476.63;;;2.03;92.14
25759;BME280;13604;52.496;13.456;2023-04-28T03:05:49;101453.16;;;1.90;91.40
25759;BME280;13604;52.496;13.456;2023-04-28T03:08:15;101447.97;;;1.80;91.58
25759;BME280;13604;52.496;13.456;2023-04-28T03:10:40;101473.53;;;1.97;91.99
25759;BME280;13604;52.496;13.456;2023-04-28T03:13:05;101459.09;;;1.89;90.99
25759;BME280;13604;52.496;13.456;2023-04-28T03:15:31;101465.03;;;1.98;90.73
25759;BME280;13604;52.496;13.456;2023-04-28T03:17:57;101482.94;;;2.07;90.96
25759;BME280;13604;52.496;13.456;2023-04-28T03:20:23;101413.13;;;1.73;90.42
25759;BME280;13604;52.496;13.456;2023-04-28T03:22:48;101466.78;;;2.08;89.68
25759;BME280;13604;52.496;13.456;2023-04-28T03:25:13;101464.84;;;2.06;90.14
25759;BME280;13604;52.496;13.456;2023-04-28T03:27:38;101467.50;;;2.16;89.53
25759;BME280;13604;52.496;13.456;2023-04-28T03:30:05;101440.53;;;2.02;88.93
25759;BME280;13604;52.496;13.456;2023-04-28T03:32:30;101461.56;;;2.17;88.39
25759;BME280;13604;52.496;13.456;2023-04-28T03:34:56;101461.09;;;2.21;88.33
25759;BME280;13604;52.496;13.456;2023-04-28T03:37:21;101459.78;;;2.16;88.19
25759;BME280;13604;52.496;13.456;2023-04-28T03:39:46;101451.28;;;2.17;87.87
25759;BME280;13604;52.496;13.456;2023-04-28T03:42:12;101427.63;;;2.11;87.67
25759;BME280;13604;52.496;13.456;2023-04-28T03:44:37;101432.78;;;2.11;86.76
25759;BME280;13604;52.496;13.456;2023-04-28T03:47:02;101446.84;;;2.25;86.85
25759;BME280;13604;52.496;13.456;2023-04-28T03:49:28;101448.16;;;2.30;86.09
25759;BME280;13604;52.496;13.456;2023-04-28T03:51:53;101443.81;;;2.29;86.37
25759;BME280;13604;52.496;13.456;2023-04-28T03:54:19;101433.84;;;2.23;86.05
25759;BME280;13604;52.496;13.456;2023-04-28T03:56:44;101452.44;;;2.39;85.85
25759;BME280;13604;52.496;13.456;2023-04-28T03:59:10;101447.72;;;2.44;85.47
25759;BME280;13604;52.496;13.456;2023-04-28T04:01:36;101446.19;;;2.46;85.72
25759;BME280;13604;52.496;13.456;2023-04-28T04:04:03;101445.06;;;2.53;85.67
25759;BME280;13604;52.496;13.456;2023-04-28T04:06:28;101408.56;;;2.28;85.96
25759;BME280;13604;52.496;13.456;2023-04-28T04:08:53;101425.38;;;2.24;85.55
25759;BME280;13604;52.496;13.456;2023-04-28T04:11:18;101428.09;;;2.26;86.12
25759;BME280;13604;52.496;13.456;2023-04-28T04:13:44;101437.81;;;2.38;85.61
25759;BME280;13604;52.496;13.456;2023-04-28T04:16:09;101403.66;;;2.20;85.73
25759;BME280;13604;52.496;13.456;2023-04-28T04:18:35;101434.34;;;2.48;85.35
25759;BME280;13604;52.496;13.456;2023-04-28T04:21:00;101418.28;;;2.41;85.46
25759;BME280;13604;52.496;13.456;2023-04-28T04:23:25;101437.88;;;2.59;85.62
25759;BME280;13604;52.496;13.456;2023-04-28T04:25:51;101441.75;;;2.64;85.27
25759;BME280;13604;52.496;13.456;2023-04-28T04:28:16;101369.16;;;2.37;84.75
25759;BME280;13604;52.496;13.456;2023-04-28T04:30:41;101412.47;;;2.72;84.31
25759;BME280;13604;52.496;13.456;2023-04-28T04:33:07;101420.13;;;2.91;88.11
25759;BME280;13604;52.496;13.456;2023-04-28T04:35:33;101393.34;;;2.89;89.57
25759;BME280;13604;52.496;13.456;2023-04-28T04:37:59;101429.06;;;3.26;89.39
25759;BME280;13604;52.496;13.456;2023-04-28T04:40:25;101428.06;;;3.34;86.32
25759;BME280;13604;52.496;13.456;2023-04-28T04:42:50;101413.50;;;3.35;85.97
25759;BME280;13604;52.496;13.456;2023-04-28T04:45:16;101401.91;;;3.29;83.85
25759;BME280;13604;52.496;13.456;2023-04-28T04:47:42;101408.59;;;3.48;83.15
25759;BME280;13604;52.496;13.456;2023-04-28T04:50:08;101413.88;;;3.60;86.00
25759;BME280;13604;52.496;13.456;2023-04-28T04:52:33;101404.63;;;3.52;81.09
25759;BME280;13604;52.496;13.456;2023-04-28T04:54:58;101413.25;;;3.52;80.18
25759;BME280;13604;52.496;13.456;2023-04-28T04:57:24;101413.38;;;3.64;79.84
25759;BME280;13604;52.496;13.456;2023-04-28T04:59:49;101397.69;;;3.50;79.24
25759;BME280;13604;52.496;13.456;2023-04-28T05:02:15;101410.41;;;3.59;79.01
25759;BME280;13604;52.496;13.456;2023-04-28T05:04:40;101411.81;;;3.66;79.11
25759;BME280;13604;52.496;13.456;2023-04-28T05:07:05;101405.91;;;3.77;78.73
25759;BME280;13604;52.496;13.456;2023-04-28T05:09:31;101401.91;;;3.71;77.03
25759;BME280;13604;52.496;13.456;2023-04-28T05:11:57;101397.38;;;3.68;76.77
25759;BME280;13604;52.496;13.456;2023-04-28T05:14:22;101395.59;;;3.77;76.73
25759;BME280;13604;52.496;13.456;2023-04-28T05:16:48;101386.03;;;3.76;76.17
25759;BME280;13604;52.496;13.456;2023-04-28T05:19:13;101365.47;;;3.66;75.62
25759;BME280;13604;52.496;13.456;2023-04-28T05:21:38;101374.81;;;3.86;75.30
25759;BME280;13604;52.496;13.456;2023-04-28T05:24:04;101375.72;;;3.97;75.04
25759;BME280;13604;52.496;13.456;2023-04-28T05:26:29;101362.91;;;4.09;75.01
25759;BME280;13604;52.496;13.456;2023-04-28T05:28:55;101398.53;;;4.35;74.41
25759;BME280;13604;52.496;13.456;2023-04-28T05:31:20;101393.09;;;4.42;72.63
25759;BME280;13604;52.496;13.456;2023-04-28T05:33:45;101386.50;;;4.46;73.45
25759;BME280;13604;52.496;13.456;2023-04-28T05:36:11;101395.41;;;4.71;73.04
25759;BME280;13604;52.496;13.456;2023-04-28T05:38:36;101381.66;;;4.83;71.88
25759;BME280;13604;52.496;13.456;2023-04-28T05:41:02;101367.88;;;4.82;71.69
25759;BME280;13604;52.496;13.456;2023-04-28T05:43:27;101390.31;;;5.05;71.04
25759;BME280;13604;52.496;13.456;2023-04-28T05:45:52;101375.28;;;5.11;69.84
25759;BME280;13604;52.496;13.456;2023-04-28T05:48:18;101375.34;;;5.23;68.99
25759;BME280;13604;52.496;13.456;2023-04-28T05:50:43;101361.22;;;5.30;68.28
25759;BME280;13604;52.496;13.456;2023-04-28T05:53:08;101356.16;;;5.31;68.47
25759;BME280;13604;52.496;13.456;2023-04-28T05:55:34;101362.84;;;5.51;67.73
25759;BME280;13604;52.496;13.456;2023-04-28T05:58:01;101369.72;;;5.63;67.11
25759;BME280;13604;52.496;13.456;2023-04-28T06:00:26;101343.19;;;5.53;66.07
25759;BME280;13604;52.496;13.456;2023-04-28T06:02:51;101351.63;;;5.75;66.46
25759;BME280;13604;52.496;13.456;2023-04-28T06:05:17;101340.06;;;5.81;65.77
25759;BME280;13604;52.496;13.456;2023-04-28T06:07:42;101363.38;;;6.17;65.04
25759;BME280;13604;52.496;13.456;2023-04-28T06:10:08;101333.06;;;6.39;64.41
25759;BME280;13604;52.496;13.456;2023-04-28T06:12:34;101336.44;;;6.50;62.84
25759;BME280;13604;52.496;13.456;2023-04-28T06:14:59;101361.53;;;6.88;62.22
25759;BME280;13604;52.496;13.456;2023-04-28T06:17:24;101360.41;;;7.10;61.30
25759;BME280;13604;52.496;13.456;2023-04-28T06:19:49;101318.78;;;7.20;59.69
25759;BME280;13604;52.496;13.456;2023-04-28T06:22:18;101345.28;;;7.54;59.60
25759;BME280;13604;52.496;13.456;2023-04-28T06:24:43;101346.75;;;7.89;58.98
25759;BME280;13604;52.496;13.456;2023-04-28T06:27:08;101331.28;;;8.04;57.74
25759;BME280;13604;52.496;13.456;2023-04-28T06:29:34;101349.41;;;8.31;56.48
25759;BME280;13604;52.496;13.456;2023-04-28T06:31:59;101338.88;;;8.70;55.57
25759;BME280;13604;52.496;13.456;2023-04-28T06:34:25;101343.84;;;9.08;54.42
25759;BME280;13604;52.496;13.456;2023-04-28T06:36:55;101328.28;;;9.23;54.77
25759;BME280;13604;52.496;13.456;2023-04-28T06:39:22;101312.38;;;9.03;53.71
25759;BME280;13604;52.496;13.456;2023-04-28T06:41:47;101312.97;;;9.72;53.12
25759;BME280;13604;52.496;13.456;2023-04-28T06:44:12;101304.09;;;9.69;52.21
25759;BME280;13604;52.496;13.456;2023-04-28T06:46:38;101326.41;;;9.95;52.72
25759;BME280;13604;52.496;13.456;2023-04-28T06:49:03;101302.16;;;9.96;53.28
25759;BME280;13604;52.496;13.456;2023-04-28T06:51:30;101309.56;;;10.51;51.43
25759;BME280;13604;52.496;13.456;2023-04-28T06:53:57;101311.09;;;10.64;50.94
25759;BME280;13604;52.496;13.456;2023-04-28T06:56:22;101308.00;;;10.23;49.16
25759;BME280;13604;52.496;13.456;2023-04-28T06:58:48;101310.00;;;10.12;51.03
25759;BME280;13604;52.496;13.456;2023-04-28T07:01:13;101281.97;;;9.92;49.42
25759;BME280;13604;52.496;13.456;2023-04-28T07:03:38;101283.03;;;9.95;48.50
25759;BME280;13604;52.496;13.456;2023-04-28T07:06:04;101304.78;;;10.12;47.55
25759;BME280;13604;52.496;13.456;2023-04-28T07:08:30;101295.22;;;9.97;48.08
25759;BME280;13604;52.496;13.456;2023-04-28T07:10:56;101256.16;;;9.80;46.81
25759;BME280;13604;52.496;13.456;2023-04-28T07:13:21;101288.25;;;9.95;47.38
25759;BME280;13604;52.496;13.456;2023-04-28T07:15:46;101265.00;;;9.99;47.30
25759;BME280;13604;52.496;13.456;2023-04-28T07:18:12;101301.97;;;9.93;47.20
25759;BME280;13604;52.496;13.456;2023-04-28T07:20:37;101270.91;;;9.96;49.35
25759;BME280;13604;52.496;13.456;2023-04-28T07:23:02;101273.56;;;10.12;47.76
25759;BME280;13604;52.496;13.456;2023-04-28T07:25:28;101258.00;;;9.98;47.09
25759;BME280;13604;52.496;13.456;2023-04-28T07:27:53;101246.09;;;10.18;47.79
25759;BME280;13604;52.496;13.456;2023-04-28T07:30:18;101250.78;;;10.40;48.20
25759;BME280;13604;52.496;13.456;2023-04-28T07:32:44;101272.03;;;10.47;46.30
25759;BME280;13604;52.496;13.456;2023-04-28T07:35:09;101280.72;;;11.14;46.46
25759;BME280;13604;52.496;13.456;2023-04-28T07:37:36;101254.97;;;11.38;44.71
25759;BME280;13604;52.496;13.456;2023-04-28T07:40:01;101261.75;;;11.34;45.14
25759;BME280;13604;52.496;13.456;2023-04-28T07:42:26;101242.56;;;11.68;44.89
25759;BME280;13604;52.496;13.456;2023-04-28T07:44:51;101269.44;;;12.59;43.60
25759;BME280;13604;52.496;13.456;2023-04-28T07:47:17;101252.72;;;12.94;42.69
25759;BME280;13604;52.496;13.456;2023-04-28T07:49:42;101267.16;;;12.86;42.82
25759;BME280;13604;52.496;13.456;2023-04-28T07:52:07;101247.78;;;12.81;42.40
25759;BME280;13604;52.496;13.456;2023-04-28T07:54:33;101236.84;;;13.11;42.13
25759;BME280;13604;52.496;13.456;2023-04-28T07:56:59;101232.00;;;13.39;41.70
25759;BME280;13604;52.496;13.456;2023-04-28T07:59:24;101222.41;;;14.05;39.90
25759;BME280;13604;52.496;13.456;2023-04-28T08:01:50;101245.56;;;13.73;40.51
25759;BME280;13604;52.496;13.456;2023-04-28T08:04:15;101244.94;;;14.01;40.15
25759;BME280;13604;52.496;13.456;2023-04-28T08:06:40;101247.97;;;13.68;39.95
25759;BME280;13604;52.496;13.456;2023-04-28T08:09:06;101216.44;;;13.42;40.28
25759;BME280;13604;52.496;13.456;2023-04-28T08:11:31;101229.31;;;13.38;40.17
25759;BME280;13604;52.496;13.456;2023-04-28T08:13:57;101236.84;;;13.95;40.03
25759;BME280;13604;52.496;13.456;2023-04-28T08:16:26;101234.25;;;13.95;39.12
25759;BME280;13604;52.496;13.456;2023-04-28T08:18:51;101244.03;;;13.78;39.77
25759;BME280;13604;52.496;13.456;2023-04-28T08:21:17;101245.72;;;14.21;38.94
25759;BME280;13604;52.496;13.456;2023-04-28T08:23:42;101216.19;;;14.72;38.10
25759;BME280;13604;52.496;13.456;2023-04-28T08:26:07;101224.50;;;14.38;38.50
25759;BME280;13604;52.496;13.456;2023-04-28T08:28:33;101232.69;;;14.47;38.68
25759;BME280;13604;52.496;13.456;2023-04-28T08:30:58;101233.81;;;15.27;38.14
25759;BME280;13604;52.496;13.456;2023-04-28T08:33:25;101219.34;;;15.93;37.43
25759;BME280;13604;52.496;13.456;2023-04-28T08:35:50;101203.03;;;16.05;37.24
25759;BME280;13604;52.496;13.456;2023-04-28T08:38:15;101227.22;;;16.52;35.43
25759;BME280;13604;52.496;13.456;2023-04-28T08:40:42;101202.50;;;16.15;36.35
25759;BME280;13604;52.496;13.456;2023-04-28T08:43:07;101219.88;;;16.72;34.29
25759;BME280;13604;52.496;13.456;2023-04-28T08:45:42;101214.09;;;16.54;34.10
25759;BME280;13604;52.496;13.456;2023-04-28T08:48:16;101207.66;;;17.06;33.72
25759;BME280;13604;52.496;13.456;2023-04-28T08:50:43;101213.50;;;18.01;33.82
25759;BME280;13604;52.496;13.456;2023-04-28T08:53:13;101199.00;;;17.83;32.53
25759;BME280;13604;52.496;13.456;2023-04-28T08:55:40;101186.63;;;16.43;34.25
25759;BME280;13604;52.496;13.456;2023-04-28T08:58:05;101201.97;;;15.98;35.05
25759;BME280;13604;52.496;13.456;2023-04-28T09:00:35;101182.31;;;16.77;33.95
25759;BME280;13604;52.496;13.456;2023-04-28T09:03:01;101167.88;;;16.62;34.00
25759;BME280;13604;52.496;13.456;2023-04-28T09:05:26;101187.31;;;16.99;33.30
25759;BME280;13604;52.496;13.456;2023-04-28T09:07:51;101174.34;;;16.42;34.13
25759;BME280;13604;52.496;13.456;2023-04-28T09:10:20;101184.47;;;17.63;32.90
25759;BME280;13604;52.496;13.456;2023-04-28T09:12:47;101182.31;;;17.46;33.19
25759;BME280;13604;52.496;13.456;2023-04-28T09:15:44;101179.53;;;17.39;33.26
25759;BME280;13604;52.496;13.456;2023-04-28T09:18:09;101179.06;;;16.53;33.98
25759;BME280;13604;52.496;13.456;2023-04-28T09:20:38;101175.09;;;17.76;33.57
25759;BME280;13604;52.496;13.456;2023-04-28T09:23:15;101156.22;;;17.56;33.06
25759;BME280;13604;52.496;13.456;2023-04-28T09:26:03;101167.25;;;19.08;31.26
25759;BME280;13604;52.496;13.456;2023-04-28T09:28:31;101143.31;;;18.52;32.52
25759;BME280;13604;52.496;13.456;2023-04-28T09:30:56;101142.34;;;20.10;32.06
25759;BME280;13604;52.496;13.456;2023-04-28T09:33:22;101132.66;;;19.46;30.57
25759;BME280;13604;52.496;13.456;2023-04-28T09:35:47;101137.91;;;20.87;29.70
25759;BME280;13604;52.496;13.456;2023-04-28T09:38:14;101153.31;;;19.74;30.08
25759;BME280;13604;52.496;13.456;2023-04-28T09:40:50;101143.09;;;19.98;30.06
25759;BME280;13604;52.496;13.456;2023-04-28T09:43:22;101121.69;;;20.55;29.70
25759;BME280;13604;52.496;13.456;2023-04-28T09:45:48;101116.41;;;19.80;30.41
25759;BME280;13604;52.496;13.456;2023-04-28T09:48:13;101125.66;;;18.93;31.52
25759;BME280;13604;52.496;13.456;2023-04-28T09:50:39;101136.97;;;18.88;31.19
25759;BME280;13604;52.496;13.456;2023-04-28T09:53:05;101117.50;;;19.35;30.66
25759;BME280;13604;52.496;13.456;2023-04-28T09:55:31;101130.88;;;18.90;31.49
25759;BME280;13604;52.496;13.456;2023-04-28T09:58:03;101130.44;;;20.48;30.35
25759;BME280;13604;52.496;13.456;2023-04-28T10:00:32;101120.06;;;21.91;28.09
25759;BME280;13604;52.496;13.456;2023-04-28T10:02:59;101107.91;;;22.51;27.27
25759;BME280;13604;52.496;13.456;2023-04-28T10:05:25;101120.03;;;21.80;28.02
25759;BME280;13604;52.496;13.456;2023-04-28T10:07:50;101101.75;;;22.94;26.97
25759;BME280;13604;52.496;13.456;2023-04-28T10:10:18;101106.22;;;23.07;26.05
25759;BME280;13604;52.496;13.456;2023-04-28T10:12:44;101110.59;;;22.45;27.46
25759;BME280;13604;52.496;13.456;2023-04-28T10:15:11;101113.13;;;22.17;26.88
25759;BME280;13604;52.496;13.456;2023-04-28T10:17:37;101103.44;;;22.30;27.67
25759;BME280;13604;52.496;13.456;2023-04-28T10:20:03;101102.63;;;22.57;26.67
25759;BME280;13604;52.496;13.456;2023-04-28T10:23:09;101107.97;;;23.34;25.69
25759;BME280;13604;52.496;13.456;2023-04-28T10:25:42;101105.97;;;24.03;25.59
25759;BME280;13604;52.496;13.456;2023-04-28T10:28:08;101105.09;;;22.03;27.19
25759;BME280;13604;52.496;13.456;2023-04-28T10:30:34;101096.47;;;23.34;25.96
25759;BME280;13604;52.496;13.456;2023-04-28T10:43:07;101062.50;;;24.12;25.37
25759;BME280;13604;52.496;13.456;2023-04-28T10:48:20;101050.41;;;22.56;27.10
25759;BME280;13604;52.496;13.456;2023-04-28T10:56:07;101037.16;;;22.70;26.60
25759;BME280;13604;52.496;13.456;2023-04-28T10:58:33;101058.53;;;20.95;28.13
25759;BME280;13604;52.496;13.456;2023-04-28T11:06:21;101059.75;;;24.25;26.22
25759;BME280;13604;52.496;13.456;2023-04-28T11:08:57;101049.78;;;24.57;25.63
25759;BME280;13604;52.496;13.456;2023-04-28T11:11:31;101050.28;;;21.92;27.41
25759;BME280;13604;52.496;13.456;2023-04-28T11:17:08;101052.06;;;21.93;27.25
25759;BME280;13604;52.496;13.456;2023-04-28T11:19:39;101035.13;;;21.57;28.37
25759;BME280;13604;52.496;13.456;2023-04-28T11:22:18;101034.78;;;21.03;29.37
25759;BME280;13604;52.496;13.456;2023-04-28T11:24:57;101030.00;;;22.24;28.56
25759;BME280;13604;52.496;13.456;2023-04-28T11:27:24;101032.69;;;22.28;27.51
25759;BME280;13604;52.496;13.456;2023-04-28T11:29:49;101045.44;;;21.12;28.53
25759;BME280;13604;52.496;13.456;2023-04-28T11:32:14;101043.66;;;21.09;29.07
25759;BME280;13604;52.496;13.456;2023-04-28T11:34:40;101021.72;;;21.40;28.51
25759;BME280;13604;52.496;13.456;2023-04-28T11:37:06;101020.69;;;21.05;28.51
25759;BME280;13604;52.496;13.456;2023-04-28T11:39:33;101014.41;;;20.91;29.17
25759;BME280;13604;52.496;13.456;2023-04-28T11:42:08;101015.31;;;20.94;29.70
25759;BME280;13604;52.496;13.456;2023-04-28T11:44:34;101019.28;;;20.41;29.65
25759;BME280;13604;52.496;13.456;2023-04-28T11:47:00;101030.22;;;19.93;30.74
25759;BME280;13604;52.496;13.456;2023-04-28T11:49:28;101029.06;;;19.71;31.03
25759;BME280;13604;52.496;13.456;2023-04-28T11:51:57;101029.63;;;18.35;32.14
25759;BME280;13604;52.496;13.456;2023-04-28T11:54:28;101025.59;;;18.55;32.96
25759;BME280;13604;52.496;13.456;2023-04-28T11:56:55;101007.31;;;19.23;32.64
25759;BME280;13604;52.496;13.456;2023-04-28T11:59:31;101018.75;;;19.91;32.33
25759;BME280;13604;52.496;13.456;2023-04-28T12:01:59;101026.41;;;18.01;33.33
25759;BME280;13604;52.496;13.456;2023-04-28T12:04:26;101024.28;;;18.30;32.92
25759;BME280;13604;52.496;13.456;2023-04-28T12:07:12;101001.63;;;18.93;32.63
25759;BME280;13604;52.496;13.456;2023-04-28T12:09:40;101007.94;;;20.55;31.85
25759;BME280;13604;52.496;13.456;2023-04-28T12:12:11;101004.88;;;21.22;30.35
25759;BME280;13604;52.496;13.456;2023-04-28T12:14:54;101007.56;;;21.25;29.81
25759;BME280;13604;52.496;13.456;2023-04-28T12:17:24;101005.31;;;22.73;28.17
25759;BME280;13604;52.496;13.456;2023-04-28T12:19:50;101010.50;;;23.46;27.25
25759;BME280;13604;52.496;13.456;2023-04-28T12:22:15;100996.47;;;22.45;27.96
25759;BME280;13604;52.496;13.456;2023-04-28T12:24:41;100994.56;;;21.85;28.86
25759;BME280;13604;52.496;13.456;2023-04-28T12:27:19;100988.25;;;21.49;29.37
25759;BME280;13604;52.496;13.456;2023-04-28T12:29:49;101001.66;;;21.88;29.73
25759;BME280;13604;52.496;13.456;2023-04-28T12:32:15;100988.47;;;22.76;28.58
25759;BME280;13604;52.496;13.456;2023-04-28T12:34:41;100996.41;;;22.28;28.72
25759;BME280;13604;52.496;13.456;2023-04-28T12:37:07;100989.16;;;21.56;29.40
25759;BME280;13604;52.496;13.456;2023-04-28T12:39:34;100980.09;;;21.09;30.33
25759;BME280;13604;52.496;13.456;2023-04-28T12:42:00;100981.31;;;21.76;29.08
25759;BME280;13604;52.496;13.456;2023-04-28T12:44:27;100980.31;;;21.53;29.05
25759;BME280;13604;52.496;13.456;2023-04-28T12:46:53;100952.75;;;21.12;29.71
25759;BME280;13604;52.496;13.456;2023-04-28T12:49:19;100963.16;;;20.80;30.58
25759;BME280;13604;52.496;13.456;2023-04-28T12:51:44;100954.53;;;20.01;30.29
25759;BME280;13604;52.496;13.456;2023-04-28T12:54:10;100940.66;;;18.78;32.42
25759;BME280;13604;52.496;13.456;2023-04-28T12:56:35;100966.38;;;19.56;33.21
25759;BME280;13604;52.496;13.456;2023-04-28T12:59:00;100964.94;;;19.84;32.50
25759;BME280;13604;52.496;13.456;2023-04-28T13:01:30;100964.50;;;19.48;32.22
25759;BME280;13604;52.496;13.456;2023-04-28T13:03:55;100943.44;;;18.86;33.29
25759;BME280;13604;52.496;13.456;2023-04-28T13:06:21;100958.44;;;17.84;34.32
25759;BME280;13604;52.496;13.456;2023-04-28T13:08:46;100963.38;;;17.26;35.62